Beverly Hills, West Virginia
Current Conditions -  °F | °C
As of 7:51 AM on Wednesday 22 Oct 2014 (Local Time) from KHTS Reporting Station
Overcast Overcast  
Wind Chill: 41°   Ceiling: 1300
Heat Index: 45°   Visibility: 10mi
Dew Point: 41°   Wind: 7mph
Humidity: 86%   Direction: 320°NW
Pressure: 30.19"   Gusts: NA
Location:  38.4038°N, 82.3597°W
Report Text: KHTS 221151Z 32006KT 10SM OVC013 07/05 A3019 RMK AO2 SLP225 70002 T00720050 10078 20072 53018
Loading
Personal Weather Stations






























Interactive Weather Map
Tropical Storm Tracking
New forecast layout! Learn more

10-Day Weather Forecast

Advertisements
Track Severe Weather on mobile